sensor_id;sensor_type;location;lat;lon;timestamp;pressure;altitude;pressure_sealevel;temperature
18474;BMP180;30265;52.408;13.500;2023-05-10T00:10:10;101581.00;;;17.50
18474;BMP180;30265;52.408;13.500;2023-05-10T00:20:33;101579.00;;;17.40
18474;BMP180;30265;52.408;13.500;2023-05-10T00:30:55;101562.00;;;17.40
18474;BMP180;30265;52.408;13.500;2023-05-10T00:41:20;101566.00;;;17.00
18474;BMP180;30265;52.408;13.500;2023-05-10T00:51:43;101557.00;;;16.80
18474;BMP180;30265;52.408;13.500;2023-05-10T01:02:07;101547.00;;;16.60
18474;BMP180;30265;52.408;13.500;2023-05-10T01:12:29;101545.00;;;16.50
18474;BMP180;30265;52.408;13.500;2023-05-10T01:23:19;101545.00;;;16.50
18474;BMP180;30265;52.408;13.500;2023-05-10T01:33:47;101536.00;;;16.40
18474;BMP180;30265;52.408;13.500;2023-05-10T01:44:17;101531.00;;;16.20
18474;BMP180;30265;52.408;13.500;2023-05-10T01:54:49;101529.00;;;16.00
18474;BMP180;30265;52.408;13.500;2023-05-10T02:05:20;101517.00;;;16.10
18474;BMP180;30265;52.408;13.500;2023-05-10T02:15:46;101529.00;;;16.00
18474;BMP180;30265;52.408;13.500;2023-05-10T02:26:10;101513.00;;;15.90
18474;BMP180;30265;52.408;13.500;2023-05-10T02:36:37;101525.00;;;15.70
18474;BMP180;30265;52.408;13.500;2023-05-10T02:47:00;101513.00;;;15.60
18474;BMP180;30265;52.408;13.500;2023-05-10T02:57:26;101511.00;;;15.60
18474;BMP180;30265;52.408;13.500;2023-05-10T03:07:48;101523.00;;;15.40
18474;BMP180;30265;52.408;13.500;2023-05-10T03:18:15;101524.00;;;15.30
18474;BMP180;30265;52.408;13.500;2023-05-10T03:28:39;101518.00;;;15.40
18474;BMP180;30265;52.408;13.500;2023-05-10T03:39:03;101501.00;;;15.50
18474;BMP180;30265;52.408;13.500;2023-05-10T03:49:26;101498.00;;;15.90
18474;BMP180;30265;52.408;13.500;2023-05-10T03:59:50;101483.00;;;15.80
18474;BMP180;30265;52.408;13.500;2023-05-10T04:10:14;101486.00;;;16.10
18474;BMP180;30265;52.408;13.500;2023-05-10T04:20:38;101476.00;;;16.40
18474;BMP180;30265;52.408;13.500;2023-05-10T04:31:01;101460.00;;;16.70
18474;BMP180;30265;52.408;13.500;2023-05-10T04:41:24;101460.00;;;16.80
18474;BMP180;30265;52.408;13.500;2023-05-10T04:51:46;101455.00;;;17.00
18474;BMP180;30265;52.408;13.500;2023-05-10T05:02:09;101456.00;;;17.40
18474;BMP180;30265;52.408;13.500;2023-05-10T05:12:30;101442.00;;;17.70
18474;BMP180;30265;52.408;13.500;2023-05-10T05:22:53;101432.00;;;18.20
18474;BMP180;30265;52.408;13.500;2023-05-10T05:33:15;101429.00;;;18.90
18474;BMP180;30265;52.408;13.500;2023-05-10T05:43:38;101415.00;;;19.20
18474;BMP180;30265;52.408;13.500;2023-05-10T05:54:00;101402.00;;;19.80
18474;BMP180;30265;52.408;13.500;2023-05-10T06:04:25;101399.00;;;20.40
18474;BMP180;30265;52.408;13.500;2023-05-10T06:14:47;101397.00;;;20.40
18474;BMP180;30265;52.408;13.500;2023-05-10T06:25:10;101393.00;;;20.90
18474;BMP180;30265;52.408;13.500;2023-05-10T06:35:31;101386.00;;;21.20
18474;BMP180;30265;52.408;13.500;2023-05-10T06:45:55;101381.00;;;21.40
18474;BMP180;30265;52.408;13.500;2023-05-10T06:56:17;101384.00;;;21.60
18474;BMP180;30265;52.408;13.500;2023-05-10T07:06:40;101371.00;;;22.10
18474;BMP180;30265;52.408;13.500;2023-05-10T07:17:02;101368.00;;;22.20
18474;BMP180;30265;52.408;13.500;2023-05-10T07:27:25;101355.00;;;22.60
18474;BMP180;30265;52.408;13.500;2023-05-10T07:37:47;101347.00;;;23.20
18474;BMP180;30265;52.408;13.500;2023-05-10T07:48:13;101350.00;;;22.70
18474;BMP180;30265;52.408;13.500;2023-05-10T07:58:34;101335.00;;;23.70
18474;BMP180;30265;52.408;13.500;2023-05-10T08:08:57;101330.00;;;24.30
18474;BMP180;30265;52.408;13.500;2023-05-10T08:19:19;101342.00;;;24.10
18474;BMP180;30265;52.408;13.500;2023-05-10T08:29:43;101329.00;;;23.80
18474;BMP180;30265;52.408;13.500;2023-05-10T08:40:11;101330.00;;;24.40
18474;BMP180;30265;52.408;13.500;2023-05-10T08:50:35;101346.00;;;24.10
18474;BMP180;30265;52.408;13.500;2023-05-10T09:00:58;101332.00;;;24.90
18474;BMP180;30265;52.408;13.500;2023-05-10T09:11:22;101319.00;;;25.30
18474;BMP180;30265;52.408;13.500;2023-05-10T09:21:45;101325.00;;;24.90
18474;BMP180;30265;52.408;13.500;2023-05-10T09:32:08;101318.00;;;26.90
18474;BMP180;30265;52.408;13.500;2023-05-10T09:42:30;101322.00;;;26.50
18474;BMP180;30265;52.408;13.500;2023-05-10T09:52:55;101334.00;;;26.40
18474;BMP180;30265;52.408;13.500;2023-05-10T10:03:19;101325.00;;;26.40
18474;BMP180;30265;52.408;13.500;2023-05-10T10:13:43;101319.00;;;27.40
18474;BMP180;30265;52.408;13.500;2023-05-10T10:24:05;101307.00;;;27.50
18474;BMP180;30265;52.408;13.500;2023-05-10T10:34:29;101304.00;;;27.20
18474;BMP180;30265;52.408;13.500;2023-05-10T10:45:11;101300.00;;;27.90
18474;BMP180;30265;52.408;13.500;2023-05-10T10:55:45;101305.00;;;27.40
18474;BMP180;30265;52.408;13.500;2023-05-10T11:06:09;101297.00;;;28.60
18474;BMP180;30265;52.408;13.500;2023-05-10T11:16:40;101272.00;;;27.90
18474;BMP180;30265;52.408;13.500;2023-05-10T11:27:06;101290.00;;;28.70
18474;BMP180;30265;52.408;13.500;2023-05-10T11:37:29;101280.00;;;28.90
18474;BMP180;30265;52.408;13.500;2023-05-10T11:47:54;101261.00;;;30.40
18474;BMP180;30265;52.408;13.500;2023-05-10T11:58:19;101286.00;;;28.30
18474;BMP180;30265;52.408;13.500;2023-05-10T12:08:44;101291.00;;;29.10
18474;BMP180;30265;52.408;13.500;2023-05-10T12:19:08;101277.00;;;30.00
18474;BMP180;30265;52.408;13.500;2023-05-10T12:29:31;101282.00;;;29.50
18474;BMP180;30265;52.408;13.500;2023-05-10T12:39:55;101306.00;;;28.70
18474;BMP180;30265;52.408;13.500;2023-05-10T12:50:17;101284.00;;;29.80
18474;BMP180;30265;52.408;13.500;2023-05-10T13:12:04;101262.00;;;31.40
18474;BMP180;30265;52.408;13.500;2023-05-10T13:22:32;101296.00;;;29.60
18474;BMP180;30265;52.408;13.500;2023-05-10T13:33:03;101266.00;;;30.70
18474;BMP180;30265;52.408;13.500;2023-05-10T13:43:25;101261.00;;;30.20
18474;BMP180;30265;52.408;13.500;2023-05-10T13:53:55;101261.00;;;30.60
18474;BMP180;30265;52.408;13.500;2023-05-10T14:04:17;101263.00;;;30.80
18474;BMP180;30265;52.408;13.500;2023-05-10T14:14:42;101259.00;;;30.40
18474;BMP180;30265;52.408;13.500;2023-05-10T14:25:07;101268.00;;;30.20
18474;BMP180;30265;52.408;13.500;2023-05-10T14:35:31;101254.00;;;30.40
18474;BMP180;30265;52.408;13.500;2023-05-10T14:45:52;101260.00;;;30.20
18474;BMP180;30265;52.408;13.500;2023-05-10T14:56:16;101262.00;;;30.20
18474;BMP180;30265;52.408;13.500;2023-05-10T15:06:41;101270.00;;;30.00
18474;BMP180;30265;52.408;13.500;2023-05-10T15:17:06;101298.00;;;28.70
18474;BMP180;30265;52.408;13.500;2023-05-10T15:27:30;101291.00;;;29.00
18474;BMP180;30265;52.408;13.500;2023-05-10T15:37:55;101304.00;;;28.20
18474;BMP180;30265;52.408;13.500;2023-05-10T15:48:16;101299.00;;;28.50
18474;BMP180;30265;52.408;13.500;2023-05-10T15:58:40;101305.00;;;28.90
18474;BMP180;30265;52.408;13.500;2023-05-10T16:09:05;101325.00;;;27.70
18474;BMP180;30265;52.408;13.500;2023-05-10T16:19:29;101320.00;;;27.90
18474;BMP180;30265;52.408;13.500;2023-05-10T16:29:51;101366.00;;;26.50
18474;BMP180;30265;52.408;13.500;2023-05-10T16:40:14;101383.00;;;25.90
18474;BMP180;30265;52.408;13.500;2023-05-10T16:50:36;101398.00;;;25.80
18474;BMP180;30265;52.408;13.500;2023-05-10T17:00:59;101419.00;;;25.30
18474;BMP180;30265;52.408;13.500;2023-05-10T17:11:20;101419.00;;;24.90
18474;BMP180;30265;52.408;13.500;2023-05-10T17:21:44;101432.00;;;25.30
18474;BMP180;30265;52.408;13.500;2023-05-10T17:32:05;101448.00;;;24.90
18474;BMP180;30265;52.408;13.500;2023-05-10T17:42:44;101466.00;;;24.50
18474;BMP180;30265;52.408;13.500;2023-05-10T17:53:30;101480.00;;;24.20
18474;BMP180;30265;52.408;13.500;2023-05-10T18:04:22;101489.00;;;23.70
18474;BMP180;30265;52.408;13.500;2023-05-10T18:15:13;101515.00;;;23.40
18474;BMP180;30265;52.408;13.500;2023-05-10T18:26:16;101522.00;;;23.10
18474;BMP180;30265;52.408;13.500;2023-05-10T18:37:38;101530.00;;;22.80
18474;BMP180;30265;52.408;13.500;2023-05-10T18:48:14;101545.00;;;22.70
18474;BMP180;30265;52.408;13.500;2023-05-10T18:59:16;101558.00;;;22.40
18474;BMP180;30265;52.408;13.500;2023-05-10T19:09:53;101583.00;;;22.10
18474;BMP180;30265;52.408;13.500;2023-05-10T19:20:49;101585.00;;;21.80
18474;BMP180;30265;52.408;13.500;2023-05-10T19:31:37;101606.00;;;21.20
18474;BMP180;30265;52.408;13.500;2023-05-10T19:42:29;101614.00;;;21.20
18474;BMP180;30265;52.408;13.500;2023-05-10T19:53:31;101630.00;;;20.50
18474;BMP180;30265;52.408;13.500;2023-05-10T20:04:20;101632.00;;;20.00
18474;BMP180;30265;52.408;13.500;2023-05-10T20:15:00;101647.00;;;19.80
18474;BMP180;30265;52.408;13.500;2023-05-10T20:25:38;101659.00;;;19.50
18474;BMP180;30265;52.408;13.500;2023-05-10T20:36:40;101665.00;;;19.40
18474;BMP180;30265;52.408;13.500;2023-05-10T20:47:18;101676.00;;;19.10
18474;BMP180;30265;52.408;13.500;2023-05-10T20:57:52;101676.00;;;19.00
18474;BMP180;30265;52.408;13.500;2023-05-10T21:08:50;101686.00;;;18.60
18474;BMP180;30265;52.408;13.500;2023-05-10T21:19:29;101695.00;;;18.40
18474;BMP180;30265;52.408;13.500;2023-05-10T21:30:04;101693.00;;;18.30
18474;BMP180;30265;52.408;13.500;2023-05-10T21:41:14;101697.00;;;18.00
18474;BMP180;30265;52.408;13.500;2023-05-10T22:02:51;101703.00;;;18.00
18474;BMP180;30265;52.408;13.500;2023-05-10T22:13:38;101707.00;;;17.80
18474;BMP180;30265;52.408;13.500;2023-05-10T22:24:13;101700.00;;;17.80
18474;BMP180;30265;52.408;13.500;2023-05-10T22:34:35;101707.00;;;17.60
18474;BMP180;30265;52.408;13.500;2023-05-10T22:44:58;101719.00;;;17.50
18474;BMP180;30265;52.408;13.500;2023-05-10T22:55:20;101719.00;;;17.40
18474;BMP180;30265;52.408;13.500;2023-05-10T23:05:43;101724.00;;;17.20
18474;BMP180;30265;52.408;13.500;2023-05-10T23:16:06;101717.00;;;17.20
18474;BMP180;30265;52.408;13.500;2023-05-10T23:26:29;101726.00;;;16.90
18474;BMP180;30265;52.408;13.500;2023-05-10T23:36:51;101744.00;;;16.90
18474;BMP180;30265;52.408;13.500;2023-05-10T23:47:14;101733.00;;;16.70
18474;BMP180;30265;52.408;13.500;2023-05-10T23:57:36;101734.00;;;16.50
